Time;durP1;ratioP1;P1;durP2;ratioP2;P2;SDS_P1;SDS_P2;PMS_P1;PMS_P2;Temp;Humidity;BMP_temperature;BMP_pressure;BME280_temperature;BME280_humidity;BME280_pressure;Samples;Min_cycle;Max_cycle;Signal;HPM_P1;HPM_P2
2021/11/24 00:02:03;;;;;;;7.32;3.83;;;;;;;-2.74;100.00;100203.81;4978308;28;20054;-62
2021/11/24 00:04:47;;;;;;;11.90;3.92;;;;;;;-3.02;100.00;100203.56;4978150;28;20180;-64
2021/11/24 00:07:32;;;;;;;13.05;4.03;;;;;;;-3.08;100.00;100200.75;4964439;28;20869;-63
2021/11/24 00:10:18;;;;;;;15.93;4.47;;;;;;;-3.23;100.00;100207.00;4982780;28;20077;-61
2021/11/24 00:13:04;;;;;;;11.35;4.40;;;;;;;-3.44;100.00;100208.72;4966870;28;20450;-62
2021/11/24 00:15:49;;;;;;;11.50;3.97;;;;;;;-3.70;100.00;100185.97;4981467;28;20101;-65
2021/11/24 00:18:34;;;;;;;;;;;;;;;-3.70;100.00;100202.44;4978475;28;20129;-66
2021/11/24 00:21:21;;;;;;;13.23;4.05;;;;;;;-3.74;100.00;100195.34;4977088;28;19980;-66
2021/11/24 00:24:05;;;;;;;10.00;3.50;;;;;;;-3.75;100.00;100191.00;4979923;28;20050;-62
2021/11/24 00:26:50;;;;;;;11.90;3.58;;;;;;;-3.70;100.00;100189.47;4967881;28;20073;-62
2021/11/24 00:29:34;;;;;;;7.28;3.05;;;;;;;-3.85;100.00;100186.22;4980734;28;20053;-62
2021/11/24 00:32:20;;;;;;;9.18;3.05;;;;;;;-3.97;100.00;100189.97;4977123;28;20565;-65
2021/11/24 00:35:06;;;;;;;7.57;3.35;;;;;;;-4.00;100.00;100189.88;4960697;28;20069;-68
2021/11/24 00:37:51;;;;;;;6.90;2.42;;;;;;;-4.04;100.00;100193.16;4978365;28;20074;-62
2021/11/24 00:40:37;;;;;;;13.50;3.42;;;;;;;-4.06;100.00;100195.66;4964471;28;20100;-62
2021/11/24 00:43:22;;;;;;;7.50;3.05;;;;;;;-3.98;100.00;100185.63;4979364;28;20088;-61
2021/11/24 00:46:07;;;;;;;12.90;3.38;;;;;;;-3.83;100.00;100189.78;4981751;28;20633;-62
2021/11/24 00:48:51;;;;;;;8.18;2.88;;;;;;;-3.93;100.00;100185.00;4980563;28;20093;-63
2021/11/24 00:51:36;;;;;;;7.97;2.92;;;;;;;-4.18;100.00;100174.41;4977998;28;20136;-64
2021/11/24 00:54:21;;;;;;;8.57;2.75;;;;;;;-3.88;100.00;100183.50;4949823;28;20134;-69
2021/11/24 00:57:06;;;;;;;6.45;2.28;;;;;;;-3.85;100.00;100181.03;4987121;28;20454;-63
2021/11/24 00:59:51;;;;;;;8.82;2.55;;;;;;;-3.97;100.00;100184.78;4984931;28;20153;-65
2021/11/24 01:02:36;;;;;;;6.15;2.28;;;;;;;-4.22;100.00;100169.03;4969678;28;20061;-62
2021/11/24 01:05:20;;;;;;;8.95;2.40;;;;;;;-4.16;100.00;100183.13;4987186;28;20143;-63
2021/11/24 01:08:05;;;;;;;7.22;2.60;;;;;;;-4.05;100.00;100176.72;4971558;28;21090;-63
2021/11/24 01:10:51;;;;;;;6.70;2.42;;;;;;;-4.24;100.00;100168.09;4942170;28;20049;-63
2021/11/24 01:13:35;;;;;;;5.95;2.67;;;;;;;-4.31;100.00;100168.63;4969389;28;20409;-67
2021/11/24 01:16:20;;;;;;;8.27;2.65;;;;;;;-4.28;100.00;100179.97;4986419;28;20113;-64
2021/11/24 01:19:05;;;;;;;5.85;2.67;;;;;;;-4.25;100.00;100180.13;4966323;28;20049;-62
2021/11/24 01:21:50;;;;;;;7.78;2.90;;;;;;;-4.21;100.00;100175.97;4986648;28;20637;-63
2021/11/24 01:24:35;;;;;;;7.45;2.85;;;;;;;-4.05;100.00;100170.63;4972445;28;20184;-63
2021/11/24 01:27:20;;;;;;;5.50;2.40;;;;;;;-4.01;100.00;100169.94;4986436;28;20081;-63
2021/11/24 01:30:05;;;;;;;6.85;2.40;;;;;;;-4.31;100.00;100155.69;4984900;28;20103;-65
2021/11/24 01:32:50;;;;;;;7.15;2.88;;;;;;;-4.36;100.00;100144.25;4982371;28;20085;-70
2021/11/24 01:35:35;;;;;;;7.43;2.60;;;;;;;-4.43;100.00;100158.63;4985306;28;20045;-63
2021/11/24 01:38:19;;;;;;;7.93;2.60;;;;;;;-4.54;100.00;100146.00;4983453;28;20096;-63
2021/11/24 01:41:04;;;;;;;6.70;2.40;;;;;;;-4.50;100.00;100154.00;4974682;28;20109;-64
2021/11/24 01:43:48;;;;;;;6.35;2.83;;;;;;;-4.47;100.00;100148.97;4984498;28;20054;-64
2021/11/24 01:46:33;;;;;;;6.93;2.20;;;;;;;-4.61;100.00;100137.09;4984123;28;20096;-63
2021/11/24 01:49:17;;;;;;;5.25;2.17;;;;;;;-4.52;100.00;100145.25;4968578;28;20153;-67
2021/11/24 01:52:02;;;;;;;6.00;2.20;;;;;;;-4.49;100.00;100144.50;4983866;28;20073;-70
2021/11/24 01:54:47;;;;;;;6.45;2.35;;;;;;;-4.54;100.00;100146.00;4983632;28;20148;-70
2021/11/24 01:57:32;;;;;;;8.60;2.42;;;;;;;-4.42;100.00;100139.69;4969939;28;20057;-62
2021/11/24 02:00:20;;;;;;;;;;;;;;;-4.22;100.00;100143.13;4972481;28;20152;-63
2021/11/24 02:03:06;;;;;;;5.20;2.13;;;;;;;-4.19;100.00;100130.34;4986655;28;20405;-63
2021/11/24 02:05:50;;;;;;;7.93;2.85;;;;;;;-4.12;100.00;100134.97;4986345;28;20104;-62
2021/11/24 02:08:35;;;;;;;6.25;2.30;;;;;;;-4.09;100.00;100119.53;4985766;28;20128;-62
2021/11/24 02:11:19;;;;;;;8.65;2.55;;;;;;;-3.99;100.00;100132.06;4974000;28;20544;-72
2021/11/24 02:14:06;;;;;;;8.77;2.17;;;;;;;-4.27;100.00;100127.44;4988693;28;20177;-62
2021/11/24 02:16:53;;;;;;;5.18;1.80;;;;;;;-4.39;100.00;100131.16;4971794;28;20656;-62
2021/11/24 02:19:41;;;;;;;8.52;2.50;;;;;;;-4.31;100.00;100134.97;4990106;28;20069;-62
2021/11/24 02:22:27;;;;;;;6.75;2.08;;;;;;;-4.43;100.00;100118.91;4974714;28;20052;-62
2021/11/24 02:25:11;;;;;;;4.00;2.13;;;;;;;-4.34;100.00;100129.66;4988401;28;20466;-71
2021/11/24 02:27:56;;;;;;;4.93;2.47;;;;;;;-4.71;100.00;100129.72;4975477;28;20081;-61
2021/11/24 02:30:41;;;;;;;7.13;2.25;;;;;;;-4.59;100.00;100132.84;4986138;28;20482;-70
2021/11/24 02:33:26;;;;;;;6.20;1.90;;;;;;;-4.68;100.00;100129.88;4989954;28;20054;-64
2021/11/24 02:36:10;;;;;;;5.22;1.85;;;;;;;-4.77;100.00;100121.69;4988417;28;20049;-64
2021/11/24 02:38:56;;;;;;;5.88;2.10;;;;;;;-4.60;100.00;100133.69;4989792;28;20398;-65
2021/11/24 02:41:41;;;;;;;6.50;2.42;;;;;;;-4.56;100.00;100130.41;4988881;28;20521;-62
2021/11/24 02:44:28;;;;;;;5.78;1.90;;;;;;;-4.68;100.00;100127.28;4988334;28;20065;-66
2021/11/24 02:47:16;;;;;;;5.50;2.40;;;;;;;-4.87;100.00;100122.97;4987180;28;20150;-60
2021/11/24 02:50:03;;;;;;;5.93;2.50;;;;;;;-4.82;100.00;100119.72;4987826;28;20052;-60
2021/11/24 02:52:48;;;;;;;5.28;2.22;;;;;;;-4.74;100.00;100132.19;4955236;28;20061;-63
2021/11/24 02:55:33;;;;;;;8.23;2.60;;;;;;;-4.59;100.00;100127.69;4988792;28;20597;-62
2021/11/24 02:58:17;;;;;;;8.05;2.42;;;;;;;-4.53;100.00;100116.72;4987299;28;20136;-70
2021/11/24 03:01:03;;;;;;;7.05;2.50;;;;;;;-4.54;100.00;100131.38;4985924;28;20188;-62
2021/11/24 03:03:48;;;;;;;4.25;2.38;;;;;;;-4.59;100.00;100125.09;4985790;28;20064;-64
2021/11/24 03:06:32;;;;;;;7.78;2.72;;;;;;;-4.84;100.00;100129.97;4974138;28;20559;-65
2021/11/24 03:09:16;;;;;;;7.38;2.25;;;;;;;-4.87;100.00;100125.56;4986761;28;20107;-66
2021/11/24 03:12:01;;;;;;;9.95;3.10;;;;;;;-4.73;100.00;100122.72;4954391;28;20057;-63
2021/11/24 03:14:45;;;;;;;8.07;2.80;;;;;;;-4.81;100.00;100124.97;4971851;28;20192;-63
2021/11/24 03:17:29;;;;;;;11.13;3.22;;;;;;;-4.77;100.00;100124.28;4983920;28;20049;-63
2021/11/24 03:20:14;;;;;;;10.00;2.83;;;;;;;-5.00;100.00;100112.00;4989242;28;20577;-63
2021/11/24 03:22:59;;;;;;;8.63;3.05;;;;;;;-5.07;100.00;100110.84;4985459;28;20419;-66
2021/11/24 03:25:44;;;;;;;6.05;2.97;;;;;;;-5.09;100.00;100107.31;4987686;28;20486;-63
2021/11/24 03:28:28;;;;;;;7.35;3.38;;;;;;;-4.96;100.00;100113.91;4985967;28;20112;-64
2021/11/24 03:31:13;;;;;;;8.35;3.22;;;;;;;-5.06;100.00;100114.31;4987370;28;20100;-64
2021/11/24 03:33:58;;;;;;;7.05;3.10;;;;;;;-5.16;100.00;100101.75;4986044;28;20053;-64
2021/11/24 03:36:42;;;;;;;8.50;3.42;;;;;;;-5.08;100.00;100100.41;4967535;28;20148;-66
2021/11/24 03:39:27;;;;;;;7.90;2.97;;;;;;;-4.95;100.00;100110.50;4970569;28;20045;-66
2021/11/24 03:42:12;;;;;;;10.68;3.25;;;;;;;-4.96;100.00;100095.81;4985912;28;20469;-67
2021/11/24 03:44:57;;;;;;;7.28;2.90;;;;;;;-4.86;100.00;100101.47;4979612;28;20076;-64
2021/11/24 03:47:43;;;;;;;9.85;2.85;;;;;;;-4.96;100.00;100103.56;4985960;28;20057;-64
2021/11/24 03:50:28;;;;;;;8.32;3.20;;;;;;;-4.78;100.00;100107.00;4988635;28;20177;-63
2021/11/24 03:53:13;;;;;;;9.55;2.60;;;;;;;-4.61;100.00;100110.31;4982104;28;20124;-68
2021/11/24 03:55:57;;;;;;;7.28;3.03;;;;;;;-4.70;100.00;100103.06;4959566;28;20052;-64
2021/11/24 03:58:42;;;;;;;5.70;2.40;;;;;;;-4.76;100.00;100114.84;4987598;28;20532;-64
2021/11/24 04:01:26;;;;;;;12.02;3.90;;;;;;;-4.83;100.00;100117.94;4974642;28;20076;-66
2021/11/24 04:04:11;;;;;;;9.68;2.85;;;;;;;-4.95;100.00;100115.66;4986187;28;20570;-65
2021/11/24 04:06:55;;;;;;;7.93;3.08;;;;;;;-4.78;100.00;100118.22;4970487;28;20061;-65
2021/11/24 04:09:41;;;;;;;6.75;2.92;;;;;;;-4.77;100.00;100121.69;4970999;28;20053;-65
2021/11/24 04:12:26;;;;;;;9.02;2.85;;;;;;;-5.00;100.00;100118.06;4985123;28;20077;-61
2021/11/24 04:15:13;;;;;;;5.80;2.42;;;;;;;-4.92;100.00;100116.72;4964919;28;20173;-60
2021/11/24 04:17:58;;;;;;;5.45;2.63;;;;;;;-5.02;100.00;100114.50;4984892;28;20049;-65
2021/11/24 04:20:43;;;;;;;7.43;2.60;;;;;;;-5.05;100.00;100113.50;4950658;28;20086;-65
2021/11/24 04:23:28;;;;;;;6.25;2.63;;;;;;;-5.17;100.00;100116.38;4962816;28;20053;-64
2021/11/24 04:26:13;;;;;;;9.65;2.75;;;;;;;-5.27;100.00;100110.72;4984237;28;20052;-66
2021/11/24 04:28:59;;;;;;;7.93;3.15;;;;;;;-5.28;100.00;100109.84;4985768;28;20054;-66
2021/11/24 04:31:43;;;;;;;7.43;2.38;;;;;;;-5.31;100.00;100107.09;4971062;28;21015;-60
2021/11/24 04:34:28;;;;;;;6.22;2.67;;;;;;;-5.22;100.00;100094.59;4987693;28;20100;-64
2021/11/24 04:37:13;;;;;;;6.15;2.80;;;;;;;-5.10;100.00;100100.34;4987639;28;20101;-66
2021/11/24 04:39:58;;;;;;;13.65;3.63;;;;;;;-5.28;100.00;100093.44;4970566;28;20085;-68
2021/11/24 04:42:44;;;;;;;7.30;2.92;;;;;;;-5.29;100.00;100084.78;4986897;28;20053;-64
2021/11/24 04:45:29;;;;;;;6.22;2.63;;;;;;;-5.31;100.00;100090.72;4970976;28;20057;-64
2021/11/24 04:48:14;;;;;;;8.68;2.50;;;;;;;-5.35;100.00;100087.09;4984500;28;20497;-63
2021/11/24 04:51:02;;;;;;;13.82;2.90;;;;;;;-5.21;100.00;100091.19;4972662;28;20426;-59
2021/11/24 04:53:47;;;;;;;10.02;3.60;;;;;;;-5.41;100.00;100091.97;4985733;28;20068;-68
2021/11/24 04:56:32;;;;;;;6.60;2.85;;;;;;;-5.49;100.00;100087.28;4987165;28;20089;-61
2021/11/24 04:59:16;;;;;;;11.90;3.75;;;;;;;-5.41;100.00;100091.09;4985039;28;20640;-60
2021/11/24 05:02:02;;;;;;;9.38;3.42;;;;;;;-5.36;100.00;100080.19;4985691;28;20669;-62
2021/11/24 05:04:47;;;;;;;10.98;3.05;;;;;;;-5.33;100.00;100082.00;4971893;28;20564;-59
2021/11/24 05:07:32;;;;;;;;;;;;;;;-5.22;100.00;100080.81;4985903;28;20108;-61
2021/11/24 05:10:16;;;;;;;6.38;2.83;;;;;;;-5.29;100.00;100074.44;4971939;28;20012;-62
2021/11/24 05:13:01;;;;;;;7.65;3.08;;;;;;;-5.25;100.00;100070.34;4956513;28;20089;-65
2021/11/24 05:15:46;;;;;;;;;;;;;;;-5.34;100.00;100072.50;4971116;28;20089;-64
2021/11/24 05:18:42;;;;;;;7.17;3.67;;;;;;;-5.42;100.00;100068.69;4969991;28;19975;-69
2021/11/24 05:21:35;;;;;;;9.82;3.55;;;;;;;-5.19;100.00;100062.84;4946160;28;20057;-66
2021/11/24 05:24:21;;;;;;;9.90;3.38;;;;;;;-5.06;100.00;100062.63;4966622;28;20052;-65
2021/11/24 05:27:06;;;;;;;8.55;3.40;;;;;;;-4.86;100.00;100069.56;4983964;28;20057;-65
2021/11/24 05:29:51;;;;;;;7.78;3.42;;;;;;;-5.07;100.00;100060.81;4985627;28;20669;-65
2021/11/24 05:32:39;;;;;;;8.85;3.95;;;;;;;-5.18;100.00;100062.06;4970096;28;20744;-64
2021/11/24 05:35:26;;;;;;;13.68;3.92;;;;;;;-5.02;100.00;100073.16;4984450;28;20469;-62
2021/11/24 05:38:10;;;;;;;9.30;3.88;;;;;;;-5.01;100.00;100074.03;4957067;28;20045;-61
2021/11/24 05:40:55;;;;;;;15.48;4.18;;;;;;;-5.13;100.00;100061.47;4968447;28;20064;-61
2021/11/24 05:43:39;;;;;;;9.55;3.80;;;;;;;-5.23;100.00;100059.25;4985644;28;20127;-64
2021/11/24 05:46:42;;;;;;;8.75;3.78;;;;;;;-5.06;100.00;100057.44;4971243;28;20524;-62
2021/11/24 05:49:28;;;;;;;7.85;3.67;;;;;;;-4.88;100.00;100054.81;4986945;28;20533;-64
2021/11/24 05:52:13;;;;;;;11.43;4.40;;;;;;;-4.93;100.00;100055.50;4985723;28;20085;-60
2021/11/24 05:54:58;;;;;;;;;;;;;;;-4.80;100.00;100049.16;4990278;28;20049;-64
2021/11/24 05:57:43;;;;;;;14.68;4.07;;;;;;;-4.75;100.00;100047.63;4986556;28;19928;-61
2021/11/24 06:00:27;;;;;;;12.20;3.85;;;;;;;-4.70;100.00;100041.00;4990749;28;20826;-58
2021/11/24 06:03:13;;;;;;;8.95;3.83;;;;;;;-4.78;100.00;100049.22;4974763;28;20093;-61
2021/11/24 06:05:57;;;;;;;;;;;;;;;-4.88;100.00;100047.91;4990019;28;20149;-64
2021/11/24 06:08:42;;;;;;;10.82;4.00;;;;;;;-5.15;100.00;100037.22;4963270;28;20709;-65
2021/11/24 06:11:27;;;;;;;10.90;3.88;;;;;;;-5.06;100.00;100041.94;4975181;28;20049;-55
2021/11/24 06:14:12;;;;;;;11.88;4.40;;;;;;;-4.92;100.00;100036.56;4972434;28;20049;-62
2021/11/24 06:16:57;;;;;;;15.23;3.03;;;;;;;-4.90;100.00;100023.72;4973166;28;20191;-62
2021/11/24 06:19:42;;;;;;;11.07;4.03;;;;;;;-4.91;100.00;100028.00;4975596;28;20097;-64
2021/11/24 06:22:27;;;;;;;12.63;3.40;;;;;;;-4.98;100.00;100017.31;4989742;28;20132;-56
2021/11/24 06:25:13;;;;;;;;;;;;;;;-4.59;100.00;100015.59;4990691;28;20092;-60
2021/11/24 06:27:58;;;;;;;10.65;4.25;;;;;;;-4.34;100.00;100019.28;4982345;28;20041;-63
2021/11/24 06:30:43;;;;;;;8.25;3.55;;;;;;;-4.62;100.00;100012.88;4990193;28;20209;-65
2021/11/24 06:33:28;;;;;;;;;;;;;;;-4.22;100.00;100014.63;4971177;28;20105;-67
2021/11/24 06:36:12;;;;;;;9.07;2.80;;;;;;;-3.98;100.00;100020.81;4989513;28;19972;-65
2021/11/24 06:38:57;;;;;;;9.50;3.33;;;;;;;-4.32;100.00;100004.69;4989039;28;20054;-66
2021/11/24 06:41:42;;;;;;;12.00;3.88;;;;;;;-4.48;100.00;100020.38;4947388;28;20077;-63
2021/11/24 06:44:27;;;;;;;11.43;3.90;;;;;;;-4.48;100.00;100006.59;4989655;28;20085;-64
2021/11/24 06:47:13;;;;;;;11.35;3.83;;;;;;;-4.39;100.00;99999.22;4975239;28;20521;-63
2021/11/24 06:49:59;;;;;;;7.85;2.88;;;;;;;-4.38;100.00;99999.28;4974497;28;20101;-64
2021/11/24 06:52:44;;;;;;;14.35;3.33;;;;;;;-4.40;100.00;99989.69;4972119;28;20133;-62
2021/11/24 06:55:28;;;;;;;9.65;3.35;;;;;;;-4.43;100.00;99993.03;4987650;28;20077;-63
2021/11/24 06:58:14;;;;;;;8.40;3.30;;;;;;;-4.34;100.00;99987.34;4961712;28;20097;-60
2021/11/24 07:01:01;;;;;;;8.88;3.47;;;;;;;-4.09;100.00;99975.47;4988685;28;20135;-64
2021/11/24 07:03:46;;;;;;;6.43;3.10;;;;;;;-4.17;100.00;99976.84;4973909;28;20181;-59
2021/11/24 07:06:31;;;;;;;9.77;3.35;;;;;;;-4.11;100.00;99966.78;4985921;28;20104;-59
2021/11/24 07:09:16;;;;;;;14.40;3.08;;;;;;;-4.03;100.00;99967.97;4971458;28;20084;-62
2021/11/24 07:12:01;;;;;;;8.95;3.10;;;;;;;-3.91;100.00;99958.09;4985172;28;20093;-63
2021/11/24 07:14:46;;;;;;;6.43;3.40;;;;;;;-4.01;100.00;99961.13;4981435;28;20045;-62
2021/11/24 07:17:31;;;;;;;8.40;3.45;;;;;;;-3.91;100.00;99955.50;4963615;28;20081;-58
2021/11/24 07:20:15;;;;;;;8.80;3.47;;;;;;;-3.73;100.00;99955.34;4972550;28;20097;-65
2021/11/24 07:23:00;;;;;;;7.40;3.20;;;;;;;-3.69;100.00;99947.72;4972886;28;20394;-65
2021/11/24 07:25:46;;;;;;;8.77;3.33;;;;;;;-3.75;100.00;99939.75;4984971;28;20057;-63
2021/11/24 07:28:30;;;;;;;7.18;3.10;;;;;;;-3.62;100.00;99941.97;4987519;28;20045;-60
2021/11/24 07:31:15;;;;;;;10.30;3.30;;;;;;;-3.49;100.00;99954.56;4986744;28;20781;-61
2021/11/24 07:33:59;;;;;;;6.60;2.80;;;;;;;-3.36;100.00;99951.59;4987301;28;20108;-59
2021/11/24 07:36:44;;;;;;;;;;;;;;;-3.32;100.00;99969.00;4973851;28;20077;-62
2021/11/24 07:39:29;;;;;;;8.65;3.05;;;;;;;-3.22;100.00;99953.00;4987854;28;20548;-65
2021/11/24 07:42:13;;;;;;;9.70;3.05;;;;;;;-3.03;100.00;99958.03;4987691;28;20060;-61
2021/11/24 07:44:58;;;;;;;9.45;3.20;;;;;;;-3.07;100.00;99953.56;4971287;28;20077;-61
2021/11/24 07:47:43;;;;;;;11.15;3.20;;;;;;;-2.99;100.00;99946.94;4967939;28;20105;-61
2021/11/24 07:50:28;;;;;;;;;;;;;;;-2.98;100.00;99935.72;4976165;28;20073;-62
2021/11/24 07:53:13;;;;;;;9.20;2.90;;;;;;;-3.01;100.00;99930.41;4969492;28;20358;-60
2021/11/24 07:55:59;;;;;;;11.80;3.55;;;;;;;-3.03;100.00;99916.53;4983397;28;20081;-64
2021/11/24 07:58:44;;;;;;;9.50;2.78;;;;;;;-2.60;100.00;99924.09;4964737;28;20062;-66
2021/11/24 08:01:29;;;;;;;8.80;2.85;;;;;;;-2.34;100.00;99918.94;4980342;28;20125;-63
2021/11/24 08:04:14;;;;;;;8.07;2.65;;;;;;;-2.08;100.00;99909.38;4958983;28;20078;-63
2021/11/24 08:07:01;;;;;;;9.98;2.83;;;;;;;-1.84;100.00;99912.75;4956028;28;20077;-60
2021/11/24 08:09:46;;;;;;;10.45;3.47;;;;;;;-1.40;100.00;99917.56;4978381;28;20903;-62
2021/11/24 08:12:31;;;;;;;7.35;2.95;;;;;;;-1.55;100.00;99918.00;4980385;28;20547;-63
2021/11/24 08:15:17;;;;;;;9.23;3.05;;;;;;;-1.33;100.00;99899.59;4968699;28;20069;-64
2021/11/24 08:18:01;;;;;;;10.43;2.72;;;;;;;-1.31;100.00;99897.91;4979457;28;20154;-61
2021/11/24 08:20:46;;;;;;;9.82;2.67;;;;;;;-0.92;100.00;99883.41;4978760;28;20061;-61
2021/11/24 08:23:31;;;;;;;13.35;3.35;;;;;;;-0.96;100.00;99876.34;4975749;28;20049;-58
2021/11/24 08:26:18;;;;;;;8.90;3.15;;;;;;;-1.02;100.00;99883.13;4947806;28;20100;-62
2021/11/24 08:29:03;;;;;;;18.40;3.78;;;;;;;-1.36;100.00;99881.31;4984661;28;20069;-66
2021/11/24 08:31:51;;;;;;;8.07;2.78;;;;;;;-1.25;100.00;99866.00;4970541;28;20097;-66
2021/11/24 08:34:36;;;;;;;11.00;3.38;;;;;;;-1.11;100.00;99875.94;4965153;28;20048;-62
2021/11/24 08:37:21;;;;;;;14.02;3.22;;;;;;;-1.28;100.00;99869.41;4983280;28;20109;-63
2021/11/24 08:40:06;;;;;;;;;;;;;;;-1.25;100.00;99876.41;4968639;28;20081;-64
2021/11/24 08:42:51;;;;;;;8.10;2.75;;;;;;;-1.20;100.00;99857.50;4982700;28;19932;-61
2021/11/24 08:45:36;;;;;;;5.85;2.50;;;;;;;-1.21;100.00;99841.84;4974782;28;20085;-62
2021/11/24 08:48:22;;;;;;;;;;;;;;;-1.27;100.00;99855.53;4985324;28;20049;-61
2021/11/24 08:51:06;;;;;;;10.40;2.53;;;;;;;-1.31;100.00;99850.22;4978349;28;19929;-66
2021/11/24 08:53:51;;;;;;;;;;;;;;;-1.07;100.00;99840.50;4986700;28;20145;-60
2021/11/24 08:56:37;;;;;;;11.50;2.72;;;;;;;-0.93;100.00;99836.53;4981164;28;19948;-60
2021/11/24 08:59:22;;;;;;;12.35;3.08;;;;;;;-1.02;100.00;99831.94;4966508;28;20473;-58
2021/11/24 09:02:08;;;;;;;11.27;2.72;;;;;;;-1.30;100.00;99821.66;4959800;28;20061;-63
2021/11/24 09:04:53;;;;;;;12.90;2.85;;;;;;;-1.11;100.00;99823.91;4980699;28;20089;-62
2021/11/24 09:07:38;;;;;;;;;;;;;;;-1.12;100.00;99814.34;4977939;28;20069;-59
2021/11/24 09:10:23;;;;;;;4.88;1.88;;;;;;;-1.45;100.00;99805.66;4953837;28;20064;-65
2021/11/24 09:13:08;;;;;;;12.23;2.70;;;;;;;-1.06;100.00;99817.09;4980595;28;20065;-61
2021/11/24 09:15:53;;;;;;;7.18;2.58;;;;;;;-1.07;100.00;99797.13;4976601;28;20049;-61
2021/11/24 09:18:39;;;;;;;8.85;2.42;;;;;;;-1.03;100.00;99813.72;4974906;28;20080;-64
2021/11/24 09:21:24;;;;;;;8.88;2.53;;;;;;;-1.03;100.00;99804.19;4986172;28;20064;-64
2021/11/24 09:24:14;;;;;;;;;;;;;;;-1.13;100.00;99791.78;4987733;28;20637;-61
2021/11/24 09:27:07;;;;;;;4.90;2.40;;;;;;;-1.22;100.00;99791.53;4988562;28;19987;-59
2021/11/24 09:29:52;;;;;;;4.32;2.13;;;;;;;-1.09;100.00;99775.44;4971512;28;20089;-57
2021/11/24 09:32:37;;;;;;;6.80;3.05;;;;;;;-0.86;100.00;99770.78;4957684;28;20517;-59
2021/11/24 09:35:21;;;;;;;8.02;2.60;;;;;;;-0.86;100.00;99773.41;4979214;28;20140;-59
2021/11/24 09:38:09;;;;;;;7.18;2.20;;;;;;;-0.89;100.00;99771.59;4952952;28;20136;-64
2021/11/24 09:40:56;;;;;;;7.22;2.03;;;;;;;-1.05;100.00;99758.16;4959894;28;20081;-60
2021/11/24 09:43:48;;;;;;;9.90;2.65;;;;;;;-1.03;100.00;99762.56;4965899;28;20057;-60
2021/11/24 09:46:33;;;;;;;7.60;3.10;;;;;;;-1.01;100.00;99776.50;4981105;28;20470;-59
2021/11/24 09:49:20;;;;;;;12.93;2.22;;;;;;;-0.97;100.00;99752.31;4967240;28;20105;-60
2021/11/24 09:52:07;;;;;;;7.80;2.60;;;;;;;-0.78;100.00;99744.09;4961538;28;20177;-61
2021/11/24 09:54:53;;;;;;;9.77;2.97;;;;;;;-0.67;100.00;99734.81;4976861;28;20489;-58
2021/11/24 09:57:39;;;;;;;6.10;2.80;;;;;;;-0.48;100.00;99734.41;4964893;28;20065;-56
2021/11/24 10:00:28;;;;;;;15.60;2.85;;;;;;;-0.65;100.00;99717.53;4976789;28;20417;-60
2021/11/24 10:03:15;;;;;;;5.70;2.38;;;;;;;-0.90;100.00;99719.50;4964058;28;20303;-57
2021/11/24 10:06:01;;;;;;;7.90;3.03;;;;;;;-0.94;100.00;99713.34;4976364;28;20469;-66
2021/11/24 10:08:45;;;;;;;14.65;3.03;;;;;;;-0.64;100.00;99700.16;4963739;28;20057;-59
2021/11/24 10:11:30;;;;;;;10.23;2.80;;;;;;;-0.69;100.00;99700.09;4964387;28;20053;-60
2021/11/24 10:14:15;;;;;;;8.05;2.75;;;;;;;-0.73;100.00;99710.38;4963517;28;20130;-62
2021/11/24 10:17:15;;;;;;;8.85;3.10;;;;;;;-0.72;100.00;99691.31;4985626;28;20116;-60
2021/11/24 10:20:10;;;;;;;17.00;2.70;;;;;;;-0.54;100.00;99683.94;4984113;28;20052;-63
2021/11/24 10:23:40;;;;;;;10.10;2.45;;;;;;;-0.68;100.00;99680.13;4971813;28;20449;-60
2021/11/24 10:26:33;;;;;;;11.38;3.08;;;;;;;-0.72;100.00;99693.91;4970009;28;20418;-61
2021/11/24 10:29:19;;;;;;;10.27;2.50;;;;;;;-0.71;100.00;99695.69;4972320;28;20072;-61
2021/11/24 10:32:06;;;;;;;5.63;2.55;;;;;;;-0.62;100.00;99659.44;4959384;28;20120;-60
2021/11/24 10:34:51;;;;;;;8.90;2.65;;;;;;;-0.51;100.00;99653.63;4980005;28;20422;-64
2021/11/24 10:37:36;;;;;;;6.43;2.80;;;;;;;-0.55;100.00;99643.13;4989131;28;20049;-59
2021/11/24 10:40:21;;;;;;;13.20;3.72;;;;;;;-0.40;100.00;99656.44;4958146;28;20068;-60
2021/11/24 10:43:12;;;;;;;5.18;2.67;;;;;;;-0.57;100.00;99642.19;4967746;28;20060;-59
2021/11/24 10:45:58;;;;;;;7.65;3.20;;;;;;;-0.53;100.00;99639.69;4971739;28;20053;-62
2021/11/24 10:48:43;;;;;;;15.25;3.17;;;;;;;-0.66;100.00;99632.44;4964264;28;20053;-61
2021/11/24 10:51:35;;;;;;;26.38;3.67;;;;;;;-0.47;100.00;99634.59;4979827;28;20419;-62
2021/11/24 10:54:20;;;;;;;6.75;3.03;;;;;;;-0.42;100.00;99627.78;4981521;28;20049;-58
2021/11/24 10:57:08;;;;;;;;;;;;;;;-0.62;100.00;99626.50;4983834;28;20108;-60
2021/11/24 11:00:00;;;;;;;10.10;3.17;;;;;;;-0.69;100.00;99618.50;4976829;28;19924;-62
2021/11/24 11:02:46;;;;;;;7.90;2.85;;;;;;;-0.71;100.00;99610.66;4965851;28;20048;-56
2021/11/24 11:05:31;;;;;;;5.63;2.65;;;;;;;-0.67;100.00;99609.88;4964198;28;20506;-54
2021/11/24 11:08:16;;;;;;;6.65;3.10;;;;;;;-0.62;100.00;99605.66;4987511;28;20081;-58
2021/11/24 11:11:05;;;;;;;8.27;3.30;;;;;;;-0.53;100.00;99617.97;4988767;28;20137;-59
2021/11/24 11:14:14;;;;;;;7.35;3.25;;;;;;;-0.62;100.00;99597.84;4968190;28;20057;-60
2021/11/24 11:17:00;;;;;;;9.15;2.92;;;;;;;-0.49;100.00;99606.78;4969918;28;20057;-64
2021/11/24 11:19:50;;;;;;;12.30;3.20;;;;;;;-0.39;100.00;99585.31;4981116;28;20054;-61
2021/11/24 11:22:35;;;;;;;12.38;2.33;;;;;;;-0.36;100.00;99581.03;4984851;28;20188;-59
2021/11/24 11:25:20;;;;;;;7.43;2.70;;;;;;;-0.39;100.00;99580.97;4982581;28;20062;-60
2021/11/24 11:28:05;;;;;;;9.85;3.08;;;;;;;-0.40;100.00;99580.91;4983083;28;20130;-60
2021/11/24 11:30:53;;;;;;;5.85;2.90;;;;;;;-0.42;100.00;99575.72;4966595;28;20109;-59
2021/11/24 11:33:45;;;;;;;5.32;2.70;;;;;;;-0.61;100.00;99568.38;4969120;28;20049;-66
2021/11/24 11:36:30;;;;;;;5.57;2.70;;;;;;;-0.72;100.00;99550.75;4980409;28;20078;-62
2021/11/24 11:39:15;;;;;;;5.28;2.35;;;;;;;-0.79;100.00;99536.75;4952794;28;20074;-61
2021/11/24 11:42:02;;;;;;;10.23;2.70;;;;;;;-0.74;100.00;99535.09;4986253;28;20101;-59
2021/11/24 11:44:47;;;;;;;7.53;2.95;;;;;;;-0.56;100.00;99529.38;4958366;28;20356;-59
2021/11/24 11:47:42;;;;;;;10.38;3.05;;;;;;;-0.46;100.00;99526.13;4981580;28;20054;-65
2021/11/24 11:50:48;;;;;;;5.00;2.75;;;;;;;-0.42;100.00;99520.13;4973680;28;20058;-58
2021/11/24 11:53:55;;;;;;;4.90;2.65;;;;;;;-0.49;100.00;99519.16;4972470;28;20093;-58
2021/11/24 11:56:45;;;;;;;11.07;2.58;;;;;;;-0.67;100.00;99495.34;4973582;28;20048;-63
2021/11/24 11:59:42;;;;;;;4.63;2.05;;;;;;;-0.62;100.00;99498.94;4985773;28;20053;-62
2021/11/24 12:02:27;;;;;;;8.23;2.25;;;;;;;-0.57;100.00;99486.88;4979063;28;20130;-64
2021/11/24 12:05:14;;;;;;;4.38;2.25;;;;;;;-0.54;100.00;99480.84;4957529;28;20100;-62
2021/11/24 12:08:10;;;;;;;11.52;2.28;;;;;;;-0.38;100.00;99465.53;4984877;28;20415;-63
2021/11/24 12:11:01;;;;;;;4.82;2.17;;;;;;;-0.62;100.00;99446.88;4976580;28;20532;-64
2021/11/24 12:13:45;;;;;;;5.60;2.35;;;;;;;-0.60;100.00;99460.78;4985951;28;20073;-63
2021/11/24 12:16:39;;;;;;;4.13;2.45;;;;;;;-0.54;100.00;99466.13;4968277;28;20052;-63
2021/11/24 12:19:35;;;;;;;7.78;2.58;;;;;;;-0.60;100.00;99439.94;4966337;28;20138;-64
2021/11/24 12:25:34;;;;;;;8.45;2.55;;;;;;;-0.52;100.00;99450.50;4962366;28;20058;-64
2021/11/24 12:28:20;;;;;;;7.85;2.65;;;;;;;-0.60;100.00;99423.44;4970960;28;20577;-61
2021/11/24 12:31:11;;;;;;;6.28;2.42;;;;;;;-0.43;100.00;99427.25;4980324;28;20057;-61
2021/11/24 12:33:58;;;;;;;3.70;1.50;;;;;;;-0.46;100.00;99428.06;4970187;28;20053;-62
2021/11/24 12:36:45;;;;;;;4.65;2.15;;;;;;;-0.47;100.00;99415.88;4981927;28;20053;-65
2021/11/24 12:39:30;;;;;;;5.05;2.05;;;;;;;-0.58;100.00;99419.16;4966059;28;20585;-64
2021/11/24 12:42:15;;;;;;;5.30;2.30;;;;;;;-0.55;100.00;99401.84;4956277;28;20053;-63
2021/11/24 12:44:59;;;;;;;4.13;1.92;;;;;;;-0.56;100.00;99410.53;4973834;28;20113;-63
2021/11/24 12:47:55;;;;;;;5.45;2.55;;;;;;;-0.56;100.00;99394.91;4964359;28;20295;-63
2021/11/24 12:50:39;;;;;;;;;;;;;;;-0.57;100.00;99402.69;4961160;28;20085;-68
2021/11/24 12:53:24;;;;;;;6.43;2.30;;;;;;;-0.66;100.00;99381.69;4981534;28;19928;-61